Bright Ocean — HOGQ — position and weather

sailwx.info

Track history (hours):
 
Tides and Currents Weather Stations Pressure Air Temp Water Temp Dewpoint Dewpoint Depression Visibility Wind Speed Wind Dir Waves Ship Positions

Bright Ocean

Last reported at 2016-Apr-22 14:33 UTC. Time now 2016-May-04 09:47 UTC.
Position S 19°16' E 113°26'.
Warning: this ship's position is 11 days out of date.

Length 178 m; draft 6.8 m.

Type: Cargo ship. MMSI: 373816000.

Date/timePositionNaut miles runAvg speedWind from/ knotsBaromVisibWave heightAir tempDewpointWater temp
2016-Apr-22 14:33S 19°16' E 113°26'  
2016-Apr-17 10:32N 01°15' E 104°05'5 3.5
2016-Apr-17 09:09N 01°18' E 104°00'0 0.1
2016-Apr-17 06:27N 01°18' E 104°01'0 0.0
2016-Apr-17 05:33N 01°18' E 104°01'0 0.0
2016-Apr-17 03:33N 01°18' E 104°01'0 0.0
2016-Apr-17 02:09N 01°18' E 104°01'0 0.1
2016-Apr-17 01:27N 01°17' E 104°01'0 0.1
2016-Apr-17 00:12N 01°18' E 104°00'0 0.0
2016-Apr-16 23:27N 01°18' E 104°00'2 2.5
2016-Apr-16 22:33N 01°16' E 103°59'7 7.4
2016-Apr-16 21:33N 01°17' E 104°06'  
Track history (hours):
 
Tides and Currents Weather Stations Pressure Air Temp Water Temp Dewpoint Dewpoint Depression Visibility Wind Speed Wind Dir Waves Ship Positions

Bright Ocean

Last reported at 2016-Apr-22 14:33 UTC. Time now 2016-May-04 09:47 UTC.
Position S 19°16' E 113°26'.
Warning: this ship's position is 11 days out of date.

Length 178 m; draft 6.8 m.

Type: Cargo ship. MMSI: 373816000.

Date/timePositionNaut miles runAvg speedWind from/ knotsBaromVisibWave heightAir tempDewpointWater temp
2016-Apr-22 14:33S 19°16' E 113°26'  
2016-Apr-17 10:32N 01°15' E 104°05'5 3.5
2016-Apr-17 09:09N 01°18' E 104°00'0 0.1
2016-Apr-17 06:27N 01°18' E 104°01'0 0.0
2016-Apr-17 05:33N 01°18' E 104°01'0 0.0
2016-Apr-17 03:33N 01°18' E 104°01'0 0.0
2016-Apr-17 02:09N 01°18' E 104°01'0 0.1
2016-Apr-17 01:27N 01°17' E 104°01'0 0.1
2016-Apr-17 00:12N 01°18' E 104°00'0 0.0
2016-Apr-16 23:27N 01°18' E 104°00'2 2.5
2016-Apr-16 22:33N 01°16' E 103°59'7 7.4
2016-Apr-16 21:33N 01°17' E 104°06'  

Dump ship's entire track history